createdAt,value
2019-04-26T00:01:18.486Z,58.53
2019-04-26T00:03:46.953Z,58.74
2019-04-26T00:13:45.499Z,60.15
2019-04-26T00:16:21.269Z,59.40
2019-04-26T00:18:48.649Z,59.72
2019-04-26T00:21:16.179Z,59.69
2019-04-26T00:23:43.596Z,59.80
2019-04-26T00:26:12.274Z,59.21
2019-04-26T00:28:40.142Z,60.11
2019-04-26T00:31:07.327Z,60.04
2019-04-26T00:33:34.421Z,60.00
2019-04-26T00:36:01.618Z,60.04
2019-04-26T00:38:31.639Z,60.03
2019-04-26T00:40:58.842Z,60.01
2019-04-26T00:43:26.110Z,59.90
2019-04-26T00:45:55.365Z,59.56
2019-04-26T00:48:24.153Z,59.64
2019-04-26T00:50:52.403Z,59.70
2019-04-26T00:53:21.793Z,59.87
2019-04-26T00:55:51.336Z,59.88
2019-04-26T00:58:20.405Z,60.24
2019-04-26T01:00:48.136Z,59.77
2019-04-26T01:03:15.736Z,59.87
2019-04-26T01:05:43.745Z,59.90
2019-04-26T01:08:10.909Z,60.14
2019-04-26T01:10:38.513Z,60.39
2019-04-26T01:13:05.849Z,60.82
2019-04-26T01:15:32.869Z,60.75
2019-04-26T01:18:00.248Z,60.76
2019-04-26T01:20:30.741Z,60.33
2019-04-26T01:23:02.453Z,60.53
2019-04-26T01:25:42.740Z,60.67
2019-04-26T01:28:15.492Z,60.45
2019-04-26T01:30:43.463Z,60.57
2019-04-26T01:33:10.904Z,60.47
2019-04-26T01:35:38.673Z,60.66
2019-04-26T01:38:09.984Z,60.48
2019-04-26T01:40:39.482Z,60.52
2019-04-26T01:43:07.503Z,60.60
2019-04-26T01:45:47.652Z,60.81
2019-04-26T01:48:44.683Z,61.01
2019-04-26T01:51:37.205Z,61.24
2019-04-26T01:54:05.288Z,61.66
2019-04-26T01:56:34.992Z,61.70
2019-04-26T01:59:04.302Z,61.92
2019-04-26T02:01:36.585Z,62.07
2019-04-26T02:04:04.575Z,61.70
2019-04-26T02:06:35.075Z,61.60
2019-04-26T02:09:01.682Z,61.99
2019-04-26T02:11:28.961Z,62.11
2019-04-26T02:13:56.537Z,61.89
2019-04-26T02:16:25.052Z,62.03
2019-04-26T02:18:53.058Z,62.67
2019-04-26T02:21:23.648Z,62.67
2019-04-26T02:24:13.426Z,61.70
2019-04-26T02:26:46.288Z,61.81
2019-04-26T02:29:19.021Z,61.66
2019-04-26T02:31:50.861Z,62.07
2019-04-26T02:34:17.962Z,62.51
2019-04-26T02:36:57.394Z,62.60
2019-04-26T02:39:21.804Z,62.66
2019-04-26T02:41:53.213Z,62.70
2019-04-26T02:44:26.639Z,62.47
2019-04-26T02:47:30.919Z,62.85
2019-04-26T02:50:05.925Z,62.90
2019-04-26T02:52:54.236Z,63.10
2019-04-26T02:55:42.393Z,63.46
2019-04-26T02:58:11.360Z,64.12
2019-04-26T03:00:39.243Z,63.65
2019-04-26T03:03:06.764Z,63.37
2019-04-26T03:05:39.665Z,63.19
2019-04-26T03:08:11.539Z,63.14
2019-04-26T03:10:43.510Z,62.84
2019-04-26T03:13:17.120Z,62.63
2019-04-26T03:16:00.504Z,62.57
2019-04-26T03:18:33.502Z,63.32
2019-04-26T03:21:09.821Z,63.44
2019-04-26T03:23:58.283Z,63.12
2019-04-26T03:26:33.712Z,62.95
2019-04-26T03:29:09.708Z,63.33
2019-04-26T03:31:54.538Z,63.61
2019-04-26T03:34:55.048Z,63.21
2019-04-26T03:37:42.706Z,62.96
2019-04-26T03:40:53.589Z,63.52
2019-04-26T03:43:50.142Z,63.29
2019-04-26T03:46:45.172Z,62.77
2019-04-26T03:49:36.113Z,62.68
2019-04-26T03:52:27.578Z,62.72
2019-04-26T03:55:03.525Z,63.50
2019-04-26T03:57:55.138Z,63.64
2019-04-26T04:00:47.053Z,63.73
2019-04-26T04:03:30.522Z,63.79
2019-04-26T04:06:01.948Z,62.25
2019-04-26T04:08:48.321Z,62.44
2019-04-26T04:11:24.061Z,62.13
2019-04-26T04:14:02.513Z,62.30
2019-04-26T04:16:49.164Z,62.45
2019-04-26T04:20:14.700Z,62.66
2019-04-26T04:23:05.499Z,62.84
2019-04-26T04:25:45.363Z,63.23
2019-04-26T04:28:42.483Z,63.48
2019-04-26T04:31:39.798Z,63.09
2019-04-26T04:34:35.550Z,63.26
2019-04-26T04:37:06.067Z,63.06
2019-04-26T04:39:38.711Z,62.76
2019-04-26T04:42:29.286Z,62.82
2019-04-26T04:45:32.104Z,62.69
2019-04-26T04:48:19.719Z,62.88
2019-04-26T04:51:13.334Z,62.84
2019-04-26T04:53:54.981Z,62.54
2019-04-26T04:56:43.600Z,62.81
2019-04-26T04:59:27.416Z,62.08
2019-04-26T05:02:39.664Z,61.45
2019-04-26T05:05:43.636Z,61.42
2019-04-26T05:08:41.243Z,60.91
2019-04-26T05:11:18.988Z,60.39
2019-04-26T05:14:08.903Z,59.94
2019-04-26T05:17:10.384Z,59.82
2019-04-26T05:20:13.895Z,59.45
2019-04-26T05:23:18.386Z,59.12
2019-04-26T05:26:57.903Z,58.80
2019-04-26T05:29:52.097Z,58.19
2019-04-26T05:32:33.809Z,58.51
2019-04-26T05:35:55.164Z,58.01
2019-04-26T05:38:55.469Z,57.57
2019-04-26T05:41:35.993Z,57.12
2019-04-26T05:45:08.743Z,57.15
2019-04-26T05:48:10.387Z,57.83
2019-04-26T05:51:08.392Z,56.59
2019-04-26T05:54:18.424Z,56.64
2019-04-26T05:57:05.845Z,55.40
2019-04-26T05:59:50.616Z,53.60
2019-04-26T06:02:29.477Z,50.90
2019-04-26T06:05:16.250Z,50.13
2019-04-26T06:08:05.244Z,49.75
2019-04-26T06:10:38.404Z,46.93
2019-04-26T06:13:28.802Z,48.45
2019-04-26T06:16:26.308Z,47.06
2019-04-26T06:19:22.041Z,47.91
2019-04-26T06:22:06.335Z,46.61
2019-04-26T06:24:56.108Z,46.87
2019-04-26T06:27:36.747Z,46.11
2019-04-26T06:30:15.384Z,44.08
2019-04-26T06:33:06.101Z,43.86
2019-04-26T06:35:36.208Z,43.67
2019-04-26T06:38:54.500Z,42.71
2019-04-26T06:42:05.779Z,42.62
2019-04-26T06:45:02.810Z,42.10
2019-04-26T06:47:41.265Z,38.82
2019-04-26T06:50:28.437Z,37.51
2019-04-26T06:53:09.090Z,37.75
2019-04-26T06:55:43.927Z,38.48
2019-04-26T06:58:42.822Z,36.82
2019-04-26T07:01:20.166Z,38.38
2019-04-26T07:04:05.206Z,36.73
2019-04-26T07:06:50.963Z,35.90
2019-04-26T07:09:23.561Z,31.58
2019-04-26T07:12:24.490Z,32.60
2019-04-26T07:15:03.819Z,33.90
2019-04-26T07:18:00.929Z,34.84
2019-04-26T07:20:34.773Z,35.88
2019-04-26T07:23:18.634Z,33.98
2019-04-26T07:26:14.279Z,34.93
2019-04-26T07:29:12.026Z,34.75
2019-04-26T07:32:03.376Z,34.08
2019-04-26T07:34:49.027Z,33.49
2019-04-26T07:37:43.217Z,33.88
2019-04-26T07:40:45.269Z,34.86
2019-04-26T07:43:33.994Z,34.97
2019-04-26T07:46:44.143Z,33.24
2019-04-26T07:49:52.094Z,30.23
2019-04-26T07:52:50.932Z,32.70
2019-04-26T07:55:47.872Z,31.58
2019-04-26T07:59:14.687Z,29.99
2019-04-26T08:01:51.088Z,31.95
2019-04-26T08:04:30.987Z,30.89
2019-04-26T08:07:20.620Z,31.33
2019-04-26T08:10:12.367Z,31.32
2019-04-26T08:12:42.950Z,31.15
2019-04-26T08:15:20.318Z,32.34
2019-04-26T08:17:53.699Z,31.21
2019-04-26T08:20:39.777Z,31.27
2019-04-26T08:23:28.200Z,31.07
2019-04-26T08:25:43.140Z,30.90
2019-04-26T08:28:14.269Z,28.97
2019-04-26T08:30:46.266Z,30.32
2019-04-26T08:33:20.329Z,30.36
2019-04-26T08:35:53.241Z,30.98
2019-04-26T08:38:23.026Z,29.30
2019-04-26T08:40:51.116Z,29.51
2019-04-26T08:43:37.692Z,29.50
2019-04-26T08:46:12.596Z,29.23
2019-04-26T08:48:48.628Z,29.75
2019-04-26T08:51:20.568Z,29.78
2019-04-26T08:53:51.186Z,30.66
2019-04-26T08:56:29.748Z,30.81
2019-04-26T08:59:22.272Z,29.43
2019-04-26T09:01:59.922Z,30.02
2019-04-26T09:04:47.824Z,29.72
2019-04-26T09:07:20.426Z,29.10
2019-04-26T09:09:57.164Z,29.30
2019-04-26T09:12:23.699Z,29.68
2019-04-26T09:14:54.180Z,29.50
2019-04-26T09:17:21.342Z,30.35
2019-04-26T09:19:48.395Z,29.06
2019-04-26T09:22:22.601Z,30.48
2019-04-26T09:24:49.415Z,29.66
2019-04-26T09:27:21.104Z,28.47
2019-04-26T09:29:49.511Z,29.07
2019-04-26T09:32:28.028Z,29.68
2019-04-26T09:34:56.442Z,29.95
2019-04-26T09:37:23.590Z,29.24
2019-04-26T09:39:50.639Z,30.51
2019-04-26T09:42:25.775Z,30.81
2019-04-26T09:45:03.779Z,30.81
2019-04-26T09:47:32.897Z,29.65
2019-04-26T09:50:18.484Z,30.73
2019-04-26T09:52:52.896Z,30.56
2019-04-26T09:55:20.162Z,30.34
2019-04-26T09:57:47.081Z,30.08
2019-04-26T10:00:17.524Z,29.66
2019-04-26T10:02:44.859Z,29.00
2019-04-26T10:05:13.598Z,28.30
2019-04-26T10:07:41.081Z,28.49
2019-04-26T10:10:09.162Z,28.54
2019-04-26T10:12:40.875Z,30.16
2019-04-26T10:15:28.106Z,29.60
2019-04-26T10:17:55.407Z,30.05
2019-04-26T10:20:22.757Z,30.02
2019-04-26T10:22:49.664Z,30.02
2019-04-26T10:25:17.186Z,30.07
2019-04-26T10:27:44.135Z,30.93
2019-04-26T10:30:13.199Z,31.64
2019-04-26T10:32:40.349Z,29.38
2019-04-26T10:35:07.985Z,31.27
2019-04-26T10:37:39.756Z,28.92
2019-04-26T10:40:07.952Z,30.02
2019-04-26T10:42:34.959Z,29.68
2019-04-26T10:45:06.717Z,29.58
2019-04-26T10:47:34.291Z,29.44
2019-04-26T10:50:01.605Z,29.77
2019-04-26T10:52:53.319Z,29.38
2019-04-26T10:55:20.923Z,29.86
2019-04-26T10:57:57.516Z,29.59
2019-04-26T11:00:26.572Z,28.79
2019-04-26T11:02:53.569Z,29.94
2019-04-26T11:05:21.364Z,30.34
2019-04-26T11:07:48.483Z,29.58
2019-04-26T11:10:16.345Z,30.62
2019-04-26T11:12:44.753Z,31.01
2019-04-26T11:15:13.889Z,30.61
2019-04-26T11:17:41.288Z,29.75
2019-04-26T11:20:10.391Z,29.54
2019-04-26T11:22:39.076Z,30.08
2019-04-26T11:25:06.970Z,30.62
2019-04-26T11:27:34.157Z,30.55
2019-04-26T11:30:11.138Z,30.45
2019-04-26T11:32:33.094Z,31.45
2019-04-26T11:35:00.492Z,30.60
2019-04-26T11:37:27.538Z,28.59
2019-04-26T11:39:54.853Z,29.99
2019-04-26T11:42:21.968Z,28.84
2019-04-26T11:44:49.082Z,29.98
2019-04-26T11:47:16.267Z,29.93
2019-04-26T11:49:43.452Z,30.74
2019-04-26T11:52:10.511Z,29.92
2019-04-26T11:54:37.467Z,30.79
2019-04-26T11:57:08.147Z,31.17
2019-04-26T11:59:34.029Z,31.03
2019-04-26T12:02:01.027Z,31.14
2019-04-26T12:04:49.561Z,30.81
2019-04-26T12:07:26.162Z,30.66
2019-04-26T12:09:55.123Z,31.63
2019-04-26T12:12:22.119Z,31.60
2019-04-26T12:14:49.125Z,31.80
2019-04-26T12:17:16.019Z,32.31
2019-04-26T12:19:43.269Z,30.75
2019-04-26T12:22:10.640Z,31.46
2019-04-26T12:24:38.231Z,31.39
2019-04-26T12:27:05.323Z,30.52
2019-04-26T12:29:32.793Z,30.31
2019-04-26T12:31:59.746Z,31.63
2019-04-26T12:34:26.587Z,30.58
2019-04-26T12:36:53.669Z,29.60
2019-04-26T12:39:21.018Z,29.77
2019-04-26T12:41:48.215Z,29.96
2019-04-26T12:44:16.049Z,29.41
2019-04-26T12:46:44.862Z,30.01
2019-04-26T12:49:11.778Z,30.17
2019-04-26T12:51:42.765Z,29.67
2019-04-26T12:54:09.804Z,29.84
2019-04-26T12:56:38.437Z,30.51
2019-04-26T12:59:26.498Z,30.48
2019-04-26T13:02:05.569Z,30.82
2019-04-26T13:04:35.903Z,29.89
2019-04-26T13:07:06.757Z,30.60
2019-04-26T13:09:35.998Z,30.23
2019-04-26T13:12:10.396Z,30.28
2019-04-26T13:14:38.779Z,30.94
2019-04-26T13:17:15.714Z,30.99
2019-04-26T13:19:45.058Z,31.43
2019-04-26T13:22:12.539Z,30.80
2019-04-26T13:24:40.997Z,30.38
2019-04-26T13:27:10.494Z,31.37
2019-04-26T13:29:37.008Z,32.46
2019-04-26T13:32:04.135Z,31.84
2019-04-26T13:34:33.354Z,32.23
2019-04-26T13:37:02.980Z,31.82
2019-04-26T13:39:29.535Z,32.74
2019-04-26T13:42:04.386Z,32.77
2019-04-26T13:44:43.848Z,32.41
2019-04-26T13:47:23.147Z,32.62
2019-04-26T13:49:53.436Z,33.08
2019-04-26T13:52:20.412Z,32.83
2019-04-26T13:54:47.455Z,33.38
2019-04-26T13:57:14.442Z,32.86
2019-04-26T13:59:41.393Z,32.12
2019-04-26T14:02:11.762Z,31.71
2019-04-26T14:04:41.011Z,32.51
2019-04-26T14:07:06.563Z,31.57
2019-04-26T14:09:33.463Z,31.27
2019-04-26T14:12:03.358Z,30.86
2019-04-26T14:14:30.297Z,31.14
2019-04-26T14:16:58.756Z,31.99
2019-04-26T14:19:25.937Z,32.38
2019-04-26T14:21:53.303Z,30.84
2019-04-26T14:24:28.499Z,31.22
2019-04-26T14:26:57.678Z,31.34
2019-04-26T14:29:28.387Z,31.09
2019-04-26T14:31:53.390Z,29.77
2019-04-26T14:34:20.733Z,30.75
2019-04-26T14:36:47.924Z,30.81
2019-04-26T14:39:19.421Z,29.38
2019-04-26T14:41:44.017Z,30.49
2019-04-26T14:44:15.680Z,31.04
2019-04-26T14:46:48.588Z,30.72
2019-04-26T14:49:09.151Z,31.11
2019-04-26T14:51:36.063Z,30.37
2019-04-26T14:54:07.314Z,29.71
2019-04-26T14:56:32.688Z,30.24
2019-04-26T14:59:01.839Z,30.29
2019-04-26T15:01:37.929Z,30.56
2019-04-26T15:04:28.174Z,30.83
2019-04-26T15:06:58.214Z,30.29
2019-04-26T15:09:29.799Z,30.62
2019-04-26T15:11:57.781Z,30.48
2019-04-26T15:14:22.890Z,30.35
2019-04-26T15:16:50.078Z,30.16
2019-04-26T15:19:17.315Z,29.84
2019-04-26T15:21:44.636Z,30.33
2019-04-26T15:24:12.822Z,30.49
2019-04-26T15:26:39.911Z,30.66
2019-04-26T15:29:07.032Z,29.52
2019-04-26T15:31:33.975Z,29.45
2019-04-26T15:34:01.018Z,28.81
2019-04-26T15:36:28.132Z,29.37
2019-04-26T15:38:55.859Z,29.42
2019-04-26T15:41:43.106Z,29.59
2019-04-26T15:44:29.339Z,29.84
2019-04-26T15:47:07.346Z,29.90
2019-04-26T15:49:37.087Z,29.78
2019-04-26T15:52:04.506Z,28.95
2019-04-26T15:54:32.483Z,29.70
2019-04-26T15:57:00.043Z,29.50
2019-04-26T15:59:27.143Z,28.55
2019-04-26T16:01:56.296Z,29.15
2019-04-26T16:04:23.906Z,28.92
2019-04-26T16:06:52.222Z,27.97
2019-04-26T16:09:20.671Z,28.19
2019-04-26T16:11:49.810Z,28.85
2019-04-26T16:14:17.269Z,28.71
2019-04-26T16:16:44.188Z,29.21
2019-04-26T16:19:12.988Z,28.61
2019-04-26T16:21:40.447Z,28.89
2019-04-26T16:24:07.409Z,28.71
2019-04-26T16:26:34.375Z,28.60
2019-04-26T16:29:01.389Z,27.80
2019-04-26T16:31:32.205Z,28.27
2019-04-26T16:34:06.638Z,26.95
2019-04-26T16:36:32.218Z,27.22
2019-04-26T16:38:59.278Z,28.05
2019-04-26T16:41:27.152Z,27.85
2019-04-26T16:43:54.709Z,28.26
2019-04-26T16:46:23.102Z,27.89
2019-04-26T16:48:57.077Z,28.13
2019-04-26T16:51:20.078Z,28.81
2019-04-26T16:54:05.307Z,28.79
2019-04-26T16:56:15.954Z,28.88
2019-04-26T16:58:45.403Z,29.26
2019-04-26T17:01:14.700Z,29.71
2019-04-26T17:03:46.459Z,29.44
2019-04-26T17:06:13.779Z,29.81
2019-04-26T17:08:42.797Z,30.04
2019-04-26T17:18:27.037Z,30.78
2019-04-26T17:20:54.205Z,30.99
2019-04-26T17:23:30.286Z,31.14
2019-04-26T17:26:09.262Z,31.48
2019-04-26T17:28:36.703Z,31.55
2019-04-26T17:31:04.023Z,31.78
2019-04-26T17:33:32.654Z,32.05
2019-04-26T17:36:00.000Z,32.05
2019-04-26T17:38:27.483Z,32.23
2019-04-26T17:40:54.387Z,32.40
2019-04-26T17:43:21.421Z,32.62
2019-04-26T17:45:48.528Z,32.71
2019-04-26T17:48:15.691Z,33.00
2019-04-26T17:50:42.795Z,33.03
2019-04-26T17:53:10.765Z,33.19
2019-04-26T17:55:38.366Z,33.45
2019-04-26T17:58:12.040Z,33.75
2019-04-26T18:00:45.323Z,33.65
2019-04-26T18:03:07.586Z,33.83
2019-04-26T18:05:44.900Z,34.12
2019-04-26T18:08:30.642Z,34.25
2019-04-26T18:10:30.614Z,34.72
2019-04-26T18:12:57.723Z,34.58
2019-04-26T18:15:25.046Z,34.61
2019-04-26T18:17:58.638Z,34.68
2019-04-26T18:20:33.585Z,34.83
2019-04-26T18:23:10.024Z,35.24
2019-04-26T18:25:37.497Z,34.89
2019-04-26T18:28:04.804Z,34.96
2019-04-26T18:30:33.609Z,35.02
2019-04-26T18:33:00.567Z,35.17
2019-04-26T18:35:27.739Z,35.17
2019-04-26T18:37:54.943Z,35.31
2019-04-26T18:40:23.131Z,35.12
2019-04-26T18:42:50.133Z,35.10
2019-04-26T18:45:21.591Z,35.14
2019-04-26T18:47:46.182Z,35.35
2019-04-26T18:50:13.998Z,35.69
2019-04-26T18:52:59.849Z,35.57
2019-04-26T18:55:34.488Z,35.72
2019-04-26T18:58:05.168Z,35.80
2019-04-26T19:00:33.641Z,36.22
2019-04-26T19:03:01.239Z,36.42
2019-04-26T19:05:30.512Z,36.54
2019-04-26T19:07:57.584Z,36.89
2019-04-26T19:10:25.765Z,36.84
2019-04-26T19:12:56.399Z,36.99
2019-04-26T19:15:41.676Z,37.16
2019-04-26T19:18:28.077Z,37.24
2019-04-26T19:21:03.120Z,37.29
2019-04-26T19:23:31.995Z,37.53
2019-04-26T19:25:59.370Z,37.56
2019-04-26T19:28:26.297Z,37.61
2019-04-26T19:30:53.336Z,38.12
2019-04-26T19:33:21.584Z,38.28
2019-04-26T19:35:48.800Z,38.68
2019-04-26T19:38:16.026Z,38.91
2019-04-26T19:40:48.031Z,39.55
2019-04-26T19:43:12.636Z,39.71
2019-04-26T19:45:46.219Z,39.34
2019-04-26T19:48:26.324Z,39.48
2019-04-26T19:50:55.282Z,39.73
2019-04-26T19:53:29.919Z,40.28
2019-04-26T19:56:10.898Z,39.93
2019-04-26T19:58:41.981Z,40.03
2019-04-26T20:01:09.294Z,40.05
2019-04-26T20:03:36.239Z,40.48
2019-04-26T20:06:05.024Z,40.16
2019-04-26T20:08:35.417Z,40.33
2019-04-26T20:11:01.422Z,40.18
2019-04-26T20:13:28.460Z,40.38
2019-04-26T20:15:57.401Z,40.35
2019-04-26T20:18:24.547Z,40.48
2019-04-26T20:20:52.160Z,40.70
2019-04-26T20:23:19.789Z,40.69
2019-04-26T20:25:47.003Z,40.79
2019-04-26T20:28:14.217Z,40.81
2019-04-26T20:31:07.129Z,40.96
2019-04-26T20:33:31.279Z,40.96
2019-04-26T20:36:01.900Z,41.04
2019-04-26T20:38:27.783Z,41.32
2019-04-26T20:40:55.216Z,41.32
2019-04-26T20:43:26.366Z,41.21
2019-04-26T20:46:11.054Z,41.41
2019-04-26T20:48:21.604Z,41.31
2019-04-26T20:50:48.691Z,41.59
2019-04-26T20:53:15.640Z,41.66
2019-04-26T20:55:42.825Z,41.82
2019-04-26T20:58:11.661Z,41.89
2019-04-26T21:00:38.676Z,41.88
2019-04-26T21:03:06.241Z,41.94
2019-04-26T21:05:45.834Z,41.93
2019-04-26T21:08:04.762Z,42.03
2019-04-26T21:10:32.435Z,42.13
2019-04-26T21:12:59.643Z,42.16
2019-04-26T21:15:26.859Z,42.39
2019-04-26T21:17:56.682Z,42.28
2019-04-26T21:20:22.756Z,42.31
2019-04-26T21:22:49.493Z,42.43
2019-04-26T21:25:27.669Z,42.50
2019-04-26T21:28:06.703Z,42.57
2019-04-26T21:30:39.158Z,42.55
2019-04-26T21:33:06.123Z,42.66
2019-04-26T21:35:46.934Z,42.80
2019-04-26T21:38:30.654Z,42.68
2019-04-26T21:41:12.369Z,42.97
2019-04-26T21:43:40.830Z,43.00
2019-04-26T21:46:14.173Z,42.78
2019-04-26T21:48:37.318Z,43.07
2019-04-26T21:51:08.571Z,42.90
2019-04-26T21:53:38.267Z,43.55
2019-04-26T21:56:03.503Z,43.82
2019-04-26T21:58:30.345Z,43.40
2019-04-26T22:01:03.040Z,44.20
2019-04-26T22:03:30.724Z,44.47
2019-04-26T22:05:57.883Z,44.49
2019-04-26T22:08:26.727Z,44.93
2019-04-26T22:10:53.872Z,45.05
2019-04-26T22:13:25.348Z,45.24
2019-04-26T22:15:58.297Z,45.59
2019-04-26T22:18:30.164Z,45.04
2019-04-26T22:21:01.491Z,45.52
2019-04-26T22:23:39.118Z,45.55
2019-04-26T22:26:08.556Z,45.82
2019-04-26T22:28:36.331Z,45.78
2019-04-26T22:31:08.307Z,45.84
2019-04-26T22:33:34.206Z,45.82
2019-04-26T22:36:03.770Z,45.76
2019-04-26T22:38:30.839Z,45.89
2019-04-26T22:40:57.949Z,45.86
2019-04-26T22:43:41.585Z,45.85
2019-04-26T22:46:29.897Z,45.84
2019-04-26T22:49:01.198Z,46.42
2019-04-26T22:51:28.587Z,46.10
2019-04-26T22:53:57.642Z,45.99
2019-04-26T22:56:23.369Z,46.00
2019-04-26T22:58:50.368Z,46.25
2019-04-26T23:01:17.593Z,46.38
2019-04-26T23:03:46.578Z,46.49
2019-04-26T23:06:16.581Z,46.62
2019-04-26T23:08:43.941Z,46.69
2019-04-26T23:11:11.247Z,46.94
2019-04-26T23:13:41.205Z,46.93
2019-04-26T23:16:11.384Z,47.21
2019-04-26T23:18:46.231Z,47.35
2019-04-26T23:21:18.437Z,47.51
2019-04-26T23:23:45.567Z,47.94
2019-04-26T23:26:14.386Z,47.55
2019-04-26T23:28:43.282Z,47.88
2019-04-26T23:31:10.935Z,48.02
2019-04-26T23:33:38.034Z,48.40
2019-04-26T23:36:05.091Z,48.48
2019-04-26T23:38:34.588Z,48.63
2019-04-26T23:41:04.347Z,48.87
2019-04-26T23:43:32.367Z,49.16
2019-04-26T23:45:59.199Z,49.22
2019-04-26T23:48:25.991Z,49.36
2019-04-26T23:50:53.840Z,49.48
2019-04-26T23:53:21.413Z,49.44
2019-04-26T23:55:48.312Z,49.61
2019-04-26T23:58:15.387Z,49.92
